createdAt,value
2022-08-03T00:04:53.727Z,97914.59
2022-08-03T00:09:55.599Z,97915.03
2022-08-03T00:14:57.440Z,97915.25
2022-08-03T00:19:59.337Z,97915.47
2022-08-03T00:25:01.307Z,97918.53
2022-08-03T00:30:03.673Z,97922.16
2022-08-03T00:35:07.971Z,97921.16
2022-08-03T00:40:13.071Z,97919.75
2022-08-03T00:45:14.933Z,97917.94
2022-08-03T00:50:18.507Z,97919.97
2022-08-03T00:55:21.278Z,97911.50
2022-08-03T01:00:25.706Z,97916.13
2022-08-03T01:05:28.227Z,97912.72
2022-08-03T01:10:39.148Z,97914.94
2022-08-03T01:15:54.710Z,97908.06
2022-08-03T01:20:59.629Z,97917.13
2022-08-03T01:26:56.994Z,97919.16
2022-08-03T01:32:57.983Z,97915.50
2022-08-03T01:37:38.898Z,97912.47
2022-08-03T01:42:41.763Z,97912.66
2022-08-03T01:47:45.814Z,97914.69
2022-08-03T01:52:48.291Z,97907.00
2022-08-03T01:58:05.336Z,97906.16
2022-08-03T02:03:09.917Z,97914.81
2022-08-03T02:08:14.342Z,97901.50
2022-08-03T02:13:18.127Z,97915.63
2022-08-03T02:18:21.234Z,97907.75
2022-08-03T02:23:23.187Z,97907.97
2022-08-03T02:28:32.221Z,97909.75
2022-08-03T02:33:41.445Z,97905.72
2022-08-03T02:38:44.540Z,97904.06
2022-08-03T02:44:05.946Z,97901.63
2022-08-03T02:49:40.830Z,97907.84
2022-08-03T02:54:34.560Z,97905.41
2022-08-03T02:59:37.687Z,97897.38
2022-08-03T03:04:43.165Z,97895.34
2022-08-03T03:10:04.990Z,97891.88
2022-08-03T03:15:07.183Z,97901.53
2022-08-03T03:20:09.568Z,97895.28
2022-08-03T03:25:11.935Z,97889.63
2022-08-03T03:30:13.951Z,97889.84
2022-08-03T03:35:16.767Z,97888.19
2022-08-03T03:40:19.564Z,97893.63
2022-08-03T03:45:24.349Z,97893.47
2022-08-03T03:50:27.545Z,97895.44
2022-08-03T03:55:30.514Z,97889.03
2022-08-03T04:00:32.480Z,97900.09
2022-08-03T04:05:52.823Z,97896.09
2022-08-03T04:11:12.875Z,97902.19
2022-08-03T04:16:18.134Z,97900.97
2022-08-03T04:21:23.625Z,97903.44
2022-08-03T04:26:29.048Z,97908.50
2022-08-03T04:31:30.906Z,97907.28
2022-08-03T04:36:37.370Z,97919.25
2022-08-03T04:42:07.360Z,97911.59
2022-08-03T04:47:02.855Z,97909.63
2022-08-03T04:52:07.405Z,97917.31
2022-08-03T04:57:10.618Z,97923.78
2022-08-03T05:02:24.470Z,97924.81
2022-08-03T05:07:26.371Z,97933.06
2022-08-03T05:12:38.153Z,97928.81
2022-08-03T05:17:40.235Z,97926.34
2022-08-03T05:22:42.036Z,97919.03
2022-08-03T05:27:43.844Z,97924.59
2022-08-03T05:32:45.838Z,97926.31
2022-08-03T05:37:54.593Z,97925.34
2022-08-03T05:42:57.194Z,97930.13
2022-08-03T05:48:00.048Z,97929.97
2022-08-03T05:53:01.976Z,97931.00
2022-08-03T05:58:03.997Z,97937.28
2022-08-03T06:03:06.252Z,97943.75
2022-08-03T06:08:08.129Z,97939.88
2022-08-03T06:13:10.081Z,97945.66
2022-08-03T06:18:11.924Z,97940.00
2022-08-03T06:23:16.085Z,97940.56
2022-08-03T06:28:51.704Z,97946.72
2022-08-03T06:34:31.653Z,97943.78
2022-08-03T06:39:04.398Z,97941.44
2022-08-03T06:44:06.200Z,97947.03
2022-08-03T06:49:08.337Z,97950.56
2022-08-03T06:54:10.372Z,97951.28
2022-08-03T07:00:08.126Z,97955.75
2022-08-03T07:04:34.062Z,97951.22
2022-08-03T07:09:35.914Z,97948.03
2022-08-03T07:14:40.210Z,97951.53
2022-08-03T07:19:42.018Z,97952.47
2022-08-03T07:24:43.992Z,97952.41
2022-08-03T07:29:45.807Z,97958.69
2022-08-03T07:34:47.636Z,97949.19
2022-08-03T07:39:49.515Z,97946.22
2022-08-03T07:44:51.392Z,97947.97
2022-08-03T07:49:53.218Z,97942.50
2022-08-03T07:54:55.168Z,97953.00
2022-08-03T08:00:01.803Z,97941.84
2022-08-03T08:05:13.920Z,97947.78
2022-08-03T08:10:15.904Z,97949.09
2022-08-03T08:15:17.813Z,97939.22
2022-08-03T08:20:28.086Z,97951.97
2022-08-03T08:25:33.944Z,97952.06
2022-08-03T08:30:35.913Z,97944.34
2022-08-03T08:35:38.997Z,97947.19
2022-08-03T08:40:40.938Z,97953.34
2022-08-03T08:45:42.882Z,97945.31
2022-08-03T08:50:47.696Z,97952.59
2022-08-03T08:55:56.604Z,97942.06
2022-08-03T09:01:01.912Z,97944.84
2022-08-03T09:06:04.460Z,97941.97
2022-08-03T09:11:07.668Z,97943.50
2022-08-03T09:16:12.131Z,97941.25
2022-08-03T09:21:32.019Z,97933.66
2022-08-03T09:26:36.325Z,97940.91
2022-08-03T09:31:43.310Z,97938.44
2022-08-03T09:36:50.851Z,97940.28
2022-08-03T09:42:14.767Z,97938.09
2022-08-03T09:47:28.824Z,97933.13
2022-08-03T09:52:49.125Z,97929.84
2022-08-03T09:57:52.403Z,97935.72
2022-08-03T10:03:05.582Z,97931.94
2022-08-03T10:08:15.523Z,97924.13
2022-08-03T10:13:18.965Z,97926.44
2022-08-03T10:18:20.760Z,97923.81
2022-08-03T10:23:23.123Z,97914.28
2022-08-03T10:28:25.448Z,97918.72
2022-08-03T10:33:51.416Z,97912.88
2022-08-03T10:38:57.137Z,97907.47
2022-08-03T10:43:59.813Z,97910.19
2022-08-03T10:49:03.165Z,97903.31
2022-08-03T10:54:05.241Z,97899.06
2022-08-03T10:59:07.131Z,97897.63
2022-08-03T11:04:18.540Z,97883.88
2022-08-03T11:09:20.466Z,97887.09
2022-08-03T11:14:22.659Z,97890.03
2022-08-03T11:19:57.662Z,97887.50
2022-08-03T11:25:00.889Z,97888.72
2022-08-03T11:30:08.850Z,97881.44
2022-08-03T11:35:27.036Z,97883.22
2022-08-03T11:40:48.962Z,97883.72
2022-08-03T11:46:02.103Z,97886.00
2022-08-03T11:51:18.709Z,97885.06
2022-08-03T11:56:20.670Z,97880.31
2022-08-03T12:01:23.999Z,97882.34
2022-08-03T12:06:25.799Z,97885.13
2022-08-03T12:11:29.263Z,97870.84
2022-08-03T12:16:31.322Z,97868.69
2022-08-03T12:21:35.340Z,97872.59
2022-08-03T12:26:58.458Z,97869.16
2022-08-03T12:32:01.534Z,97864.44
2022-08-03T12:37:19.292Z,97859.53
2022-08-03T12:42:31.662Z,97850.84
2022-08-03T12:47:53.622Z,97846.03
2022-08-03T12:52:57.211Z,97849.88
2022-08-03T12:58:03.411Z,97837.69
2022-08-03T13:08:29.437Z,97829.38
2022-08-03T13:13:41.046Z,97841.66
2022-08-03T13:18:43.029Z,97832.53
2022-08-03T13:23:46.851Z,97823.94
2022-08-03T13:28:48.840Z,97824.53
2022-08-03T13:33:50.688Z,97829.16
2022-08-03T13:38:52.483Z,97819.94
2022-08-03T13:44:25.157Z,97819.81
2022-08-03T13:49:20.597Z,97819.81
2022-08-03T13:54:22.824Z,97807.50
2022-08-03T13:59:26.067Z,97803.84
2022-08-03T14:04:27.936Z,97794.88
2022-08-03T14:09:29.783Z,97794.19
2022-08-03T14:14:31.600Z,97786.09
2022-08-03T14:19:33.458Z,97783.72
2022-08-03T14:24:54.656Z,97782.66
2022-08-03T14:29:59.839Z,97785.34
2022-08-03T14:35:01.641Z,97777.28
2022-08-03T14:40:04.687Z,97776.34
2022-08-03T14:45:09.404Z,97785.03
2022-08-03T14:50:37.582Z,97779.91
2022-08-03T14:55:50.296Z,97778.09
2022-08-03T15:00:55.464Z,97767.28
2022-08-03T15:05:57.562Z,97760.25
2022-08-03T15:10:59.568Z,97765.81
2022-08-03T15:16:01.440Z,97753.19
2022-08-03T15:21:03.288Z,97742.75
2022-08-03T15:26:30.404Z,97723.56
2022-08-03T15:31:27.015Z,97707.09
2022-08-03T15:36:28.800Z,97701.25
2022-08-03T15:41:30.914Z,97703.19
2022-08-03T15:46:32.773Z,97682.16
2022-08-03T15:51:34.617Z,97689.63
2022-08-03T15:56:38.687Z,97680.63
2022-08-03T16:01:40.867Z,97684.25
2022-08-03T16:06:42.815Z,97674.78
2022-08-03T16:11:44.694Z,97673.72
2022-08-03T16:16:46.671Z,97673.66
2022-08-03T16:21:49.988Z,97669.03
2022-08-03T16:26:52.107Z,97675.69
2022-08-03T16:31:54.172Z,97662.22
2022-08-03T16:36:55.997Z,97679.41
2022-08-03T16:42:00.608Z,97669.78
2022-08-03T16:47:03.876Z,97676.78
2022-08-03T16:52:07.171Z,97671.09
2022-08-03T16:57:09.162Z,97668.72
2022-08-03T17:02:25.987Z,97670.59
2022-08-03T17:07:30.342Z,97671.28
2022-08-03T17:12:32.335Z,97670.84
2022-08-03T17:17:37.641Z,97669.88
2022-08-03T17:23:34.577Z,97681.50
2022-08-03T17:28:52.165Z,97686.19
2022-08-03T17:34:01.997Z,97675.38
2022-08-03T17:39:06.774Z,97677.88
2022-08-03T17:44:15.491Z,97679.31
2022-08-03T17:49:31.999Z,97682.53
2022-08-03T17:55:54.750Z,97682.75
2022-08-03T18:00:43.274Z,97692.09
2022-08-03T18:06:11.341Z,97697.75
2022-08-03T18:11:14.798Z,97697.13
2022-08-03T18:16:38.948Z,97700.34
2022-08-03T18:22:02.782Z,97702.97
2022-08-03T18:27:06.791Z,97705.38
2022-08-03T18:32:25.188Z,97707.28
2022-08-03T18:37:28.198Z,97703.50
2022-08-03T18:42:32.257Z,97702.88
2022-08-03T18:47:58.842Z,97706.25
2022-08-03T18:53:15.638Z,97704.03
2022-08-03T18:59:02.524Z,97712.94
2022-08-03T19:04:19.231Z,97712.47
2022-08-03T19:09:48.503Z,97723.41
2022-08-03T19:14:56.515Z,97716.25
2022-08-03T19:19:58.990Z,97718.13
2022-08-03T19:25:05.938Z,97718.88
2022-08-03T19:30:21.845Z,97727.59
2022-08-03T19:35:46.961Z,97734.13
2022-08-03T19:40:57.777Z,97730.47
2022-08-03T19:46:07.312Z,97726.94
2022-08-03T19:56:34.853Z,97717.34
2022-08-03T20:01:50.919Z,97726.22
2022-08-03T20:07:00.114Z,97721.28
2022-08-03T20:12:02.080Z,97724.84
2022-08-03T20:17:05.672Z,97725.69
2022-08-03T20:22:14.516Z,97726.19
2022-08-03T20:27:20.034Z,97730.03
2022-08-03T20:32:24.657Z,97732.19
2022-08-03T20:37:26.744Z,97730.63
2022-08-03T20:42:31.915Z,97727.13
2022-08-03T20:47:39.132Z,97732.94
2022-08-03T20:52:52.784Z,97730.84
2022-08-03T20:57:56.670Z,97722.31
2022-08-03T21:03:02.136Z,97727.13
2022-08-03T21:08:07.670Z,97727.72
2022-08-03T21:13:09.654Z,97733.19
2022-08-03T21:18:23.459Z,97724.06
2022-08-03T21:23:39.914Z,97730.03
2022-08-03T21:28:50.607Z,97730.03
2022-08-03T21:33:54.602Z,97729.38
2022-08-03T21:38:58.033Z,97718.97
2022-08-03T21:44:01.546Z,97721.03
2022-08-03T21:50:07.442Z,97718.00
2022-08-03T21:54:37.853Z,97721.72
2022-08-03T21:59:46.366Z,97710.91
2022-08-03T22:04:53.510Z,97714.72
2022-08-03T22:10:00.383Z,97717.84
2022-08-03T22:15:05.365Z,97722.22
2022-08-03T22:20:10.608Z,97729.00
2022-08-03T22:25:15.863Z,97724.31
2022-08-03T22:30:19.428Z,97726.00
2022-08-03T22:35:24.054Z,97722.47
2022-08-03T22:40:27.769Z,97726.50
2022-08-03T22:46:08.014Z,97731.75
2022-08-03T22:50:51.661Z,97739.13
2022-08-03T22:55:54.011Z,97737.50
2022-08-03T23:01:01.846Z,97738.66
2022-08-03T23:06:04.015Z,97744.41
2022-08-03T23:11:10.204Z,97733.38
2022-08-03T23:16:13.821Z,97737.38
2022-08-03T23:21:17.794Z,97735.19
2022-08-03T23:26:40.086Z,97735.53
2022-08-03T23:31:44.841Z,97728.31
2022-08-03T23:36:49.938Z,97727.56
2022-08-03T23:41:53.076Z,97729.72
2022-08-03T23:46:54.913Z,97732.91
2022-08-03T23:52:08.534Z,97730.63
2022-08-03T23:57:13.418Z,97729.31
